sensor_id;sensor_type;location;lat;lon;timestamp;temperature;humidity
67897;DHT22;54698;48.428;9.964;2022-12-08T00:01:54;1.60;99.90
67897;DHT22;54698;48.428;9.964;2022-12-08T00:04:24;1.50;99.90
67897;DHT22;54698;48.428;9.964;2022-12-08T00:06:50;1.60;99.90
67897;DHT22;54698;48.428;9.964;2022-12-08T00:09:22;1.60;99.90
67897;DHT22;54698;48.428;9.964;2022-12-08T00:11:52;1.50;99.90
67897;DHT22;54698;48.428;9.964;2022-12-08T00:14:23;1.60;99.90
67897;DHT22;54698;48.428;9.964;2022-12-08T00:16:50;1.50;99.90
67897;DHT22;54698;48.428;9.964;2022-12-08T00:19:16;1.40;99.90
67897;DHT22;54698;48.428;9.964;2022-12-08T00:21:45;1.40;99.90
67897;DHT22;54698;48.428;9.964;2022-12-08T00:24:13;1.40;99.90
67897;DHT22;54698;48.428;9.964;2022-12-08T00:26:40;1.40;99.90
67897;DHT22;54698;48.428;9.964;2022-12-08T00:29:07;1.40;99.90
67897;DHT22;54698;48.428;9.964;2022-12-08T00:31:33;1.30;99.90
67897;DHT22;54698;48.428;9.964;2022-12-08T00:33:59;1.30;99.90
67897;DHT22;54698;48.428;9.964;2022-12-08T00:36:26;1.40;99.90
67897;DHT22;54698;48.428;9.964;2022-12-08T00:38:53;1.40;99.90
67897;DHT22;54698;48.428;9.964;2022-12-08T00:41:21;1.40;99.90
67897;DHT22;54698;48.428;9.964;2022-12-08T00:43:49;1.40;99.90
67897;DHT22;54698;48.428;9.964;2022-12-08T00:46:15;1.40;99.90
67897;DHT22;54698;48.428;9.964;2022-12-08T00:48:41;1.40;99.90
67897;DHT22;54698;48.428;9.964;2022-12-08T00:51:07;1.30;99.90
67897;DHT22;54698;48.428;9.964;2022-12-08T00:53:32;1.30;99.90
67897;DHT22;54698;48.428;9.964;2022-12-08T00:58:26;1.40;99.90
67897;DHT22;54698;48.428;9.964;2022-12-08T01:00:53;1.50;99.90
67897;DHT22;54698;48.428;9.964;2022-12-08T01:03:19;1.60;99.90
67897;DHT22;54698;48.428;9.964;2022-12-08T01:05:45;1.70;99.90
67897;DHT22;54698;48.428;9.964;2022-12-08T01:08:10;1.70;99.90
67897;DHT22;54698;48.428;9.964;2022-12-08T01:10:37;1.60;99.90
67897;DHT22;54698;48.428;9.964;2022-12-08T01:13:03;1.60;99.90
67897;DHT22;54698;48.428;9.964;2022-12-08T01:15:29;1.60;99.90
67897;DHT22;54698;48.428;9.964;2022-12-08T01:17:56;1.60;99.90
67897;DHT22;54698;48.428;9.964;2022-12-08T01:20:22;1.60;99.90
67897;DHT22;54698;48.428;9.964;2022-12-08T01:22:48;1.70;99.90
67897;DHT22;54698;48.428;9.964;2022-12-08T01:25:14;1.70;99.90
67897;DHT22;54698;48.428;9.964;2022-12-08T01:27:40;1.60;99.90
67897;DHT22;54698;48.428;9.964;2022-12-08T01:30:07;1.60;99.90
67897;DHT22;54698;48.428;9.964;2022-12-08T01:32:33;1.50;99.90
67897;DHT22;54698;48.428;9.964;2022-12-08T01:35:00;1.50;99.90
67897;DHT22;54698;48.428;9.964;2022-12-08T01:37:26;1.50;99.90
67897;DHT22;54698;48.428;9.964;2022-12-08T01:39:53;1.40;99.90
67897;DHT22;54698;48.428;9.964;2022-12-08T01:42:21;1.30;99.90
67897;DHT22;54698;48.428;9.964;2022-12-08T01:44:56;1.30;99.90
67897;DHT22;54698;48.428;9.964;2022-12-08T01:47:26;1.20;99.90
67897;DHT22;54698;48.428;9.964;2022-12-08T01:49:55;1.10;99.90
67897;DHT22;54698;48.428;9.964;2022-12-08T01:52:25;1.10;99.90
67897;DHT22;54698;48.428;9.964;2022-12-08T01:54:57;1.00;99.90
67897;DHT22;54698;48.428;9.964;2022-12-08T01:57:29;1.00;99.90
67897;DHT22;54698;48.428;9.964;2022-12-08T02:00:00;1.00;99.90
67897;DHT22;54698;48.428;9.964;2022-12-08T02:02:35;1.00;99.90
67897;DHT22;54698;48.428;9.964;2022-12-08T02:05:08;1.00;99.90
67897;DHT22;54698;48.428;9.964;2022-12-08T02:07:35;1.00;99.90
67897;DHT22;54698;48.428;9.964;2022-12-08T02:10:02;0.90;99.90
67897;DHT22;54698;48.428;9.964;2022-12-08T02:12:29;0.90;99.90
67897;DHT22;54698;48.428;9.964;2022-12-08T02:14:55;0.90;99.90
67897;DHT22;54698;48.428;9.964;2022-12-08T02:17:32;0.90;99.90
67897;DHT22;54698;48.428;9.964;2022-12-08T02:20:32;0.90;99.90
67897;DHT22;54698;48.428;9.964;2022-12-08T02:23:17;0.90;99.90
67897;DHT22;54698;48.428;9.964;2022-12-08T02:26:09;0.80;99.90
67897;DHT22;54698;48.428;9.964;2022-12-08T02:29:04;0.60;99.90
67897;DHT22;54698;48.428;9.964;2022-12-08T02:32:06;0.40;99.90
67897;DHT22;54698;48.428;9.964;2022-12-08T02:34:51;0.20;99.90
67897;DHT22;54698;48.428;9.964;2022-12-08T02:37:24;-0.10;99.90
67897;DHT22;54698;48.428;9.964;2022-12-08T02:39:58;-0.30;99.90
67897;DHT22;54698;48.428;9.964;2022-12-08T02:42:34;-0.50;99.90
67897;DHT22;54698;48.428;9.964;2022-12-08T02:45:07;-0.50;99.90
67897;DHT22;54698;48.428;9.964;2022-12-08T02:47:37;-0.60;99.90
67897;DHT22;54698;48.428;9.964;2022-12-08T02:50:06;-0.60;99.90
67897;DHT22;54698;48.428;9.964;2022-12-08T02:52:39;-0.70;99.90
67897;DHT22;54698;48.428;9.964;2022-12-08T02:55:10;-0.80;99.90
67897;DHT22;54698;48.428;9.964;2022-12-08T02:57:56;-0.80;99.90
67897;DHT22;54698;48.428;9.964;2022-12-08T03:00:39;-0.80;99.90
67897;DHT22;54698;48.428;9.964;2022-12-08T03:03:16;-0.70;99.90
67897;DHT22;54698;48.428;9.964;2022-12-08T03:06:03;-0.80;99.90
67897;DHT22;54698;48.428;9.964;2022-12-08T03:08:34;-0.80;99.90
67897;DHT22;54698;48.428;9.964;2022-12-08T03:11:09;-0.80;99.90
67897;DHT22;54698;48.428;9.964;2022-12-08T03:13:39;-0.80;99.90
67897;DHT22;54698;48.428;9.964;2022-12-08T03:16:08;-0.90;99.90
67897;DHT22;54698;48.428;9.964;2022-12-08T03:18:38;-0.90;99.90
67897;DHT22;54698;48.428;9.964;2022-12-08T03:21:08;-0.90;99.90
67897;DHT22;54698;48.428;9.964;2022-12-08T03:23:35;-0.90;99.90
67897;DHT22;54698;48.428;9.964;2022-12-08T03:26:07;-0.90;99.90
67897;DHT22;54698;48.428;9.964;2022-12-08T03:28:37;-0.80;99.90
67897;DHT22;54698;48.428;9.964;2022-12-08T03:31:06;-0.80;99.90
67897;DHT22;54698;48.428;9.964;2022-12-08T03:33:37;-0.70;99.90
67897;DHT22;54698;48.428;9.964;2022-12-08T03:36:08;-0.80;99.90
67897;DHT22;54698;48.428;9.964;2022-12-08T03:38:40;-0.70;99.90
67897;DHT22;54698;48.428;9.964;2022-12-08T03:41:06;-0.70;99.90
67897;DHT22;54698;48.428;9.964;2022-12-08T03:43:32;-0.80;99.90
67897;DHT22;54698;48.428;9.964;2022-12-08T03:45:58;-0.80;99.90
67897;DHT22;54698;48.428;9.964;2022-12-08T03:48:24;-0.80;99.90
67897;DHT22;54698;48.428;9.964;2022-12-08T03:50:49;-0.90;99.90
67897;DHT22;54698;48.428;9.964;2022-12-08T03:53:17;-0.90;99.90
67897;DHT22;54698;48.428;9.964;2022-12-08T03:55:42;-1.00;99.90
67897;DHT22;54698;48.428;9.964;2022-12-08T03:58:08;-1.00;99.90
67897;DHT22;54698;48.428;9.964;2022-12-08T04:00:34;-1.00;99.90
67897;DHT22;54698;48.428;9.964;2022-12-08T04:03:00;-1.00;99.90
67897;DHT22;54698;48.428;9.964;2022-12-08T04:05:26;-1.00;99.90
67897;DHT22;54698;48.428;9.964;2022-12-08T04:07:55;-1.00;99.90
67897;DHT22;54698;48.428;9.964;2022-12-08T04:10:23;-1.00;99.90
67897;DHT22;54698;48.428;9.964;2022-12-08T04:12:49;-1.10;99.90
67897;DHT22;54698;48.428;9.964;2022-12-08T04:15:14;-1.10;99.90
67897;DHT22;54698;48.428;9.964;2022-12-08T04:17:40;-1.10;99.90
67897;DHT22;54698;48.428;9.964;2022-12-08T04:20:06;-1.10;99.90
67897;DHT22;54698;48.428;9.964;2022-12-08T04:22:32;-1.10;99.90
67897;DHT22;54698;48.428;9.964;2022-12-08T04:24:58;-1.10;99.90
67897;DHT22;54698;48.428;9.964;2022-12-08T04:27:25;-1.20;99.90
67897;DHT22;54698;48.428;9.964;2022-12-08T04:29:51;-1.20;99.90
67897;DHT22;54698;48.428;9.964;2022-12-08T04:32:17;-1.30;99.90
67897;DHT22;54698;48.428;9.964;2022-12-08T04:34:43;-1.50;99.90
67897;DHT22;54698;48.428;9.964;2022-12-08T04:37:08;-1.60;99.90
67897;DHT22;54698;48.428;9.964;2022-12-08T04:39:34;-1.80;99.90
67897;DHT22;54698;48.428;9.964;2022-12-08T04:42:00;-1.90;99.90
67897;DHT22;54698;48.428;9.964;2022-12-08T04:44:27;-2.00;99.90
67897;DHT22;54698;48.428;9.964;2022-12-08T04:46:53;-2.00;99.90
67897;DHT22;54698;48.428;9.964;2022-12-08T04:49:19;-2.00;99.90
67897;DHT22;54698;48.428;9.964;2022-12-08T04:51:45;-2.00;99.90
67897;DHT22;54698;48.428;9.964;2022-12-08T04:54:11;-2.00;99.90
67897;DHT22;54698;48.428;9.964;2022-12-08T04:56:36;-1.90;99.90
67897;DHT22;54698;48.428;9.964;2022-12-08T04:59:02;-1.90;99.90
67897;DHT22;54698;48.428;9.964;2022-12-08T05:01:29;-1.90;99.90
67897;DHT22;54698;48.428;9.964;2022-12-08T05:03:55;-1.80;99.90
67897;DHT22;54698;48.428;9.964;2022-12-08T05:06:21;-1.80;99.90
67897;DHT22;54698;48.428;9.964;2022-12-08T05:08:47;-1.90;99.90
67897;DHT22;54698;48.428;9.964;2022-12-08T05:11:13;-1.90;99.90
67897;DHT22;54698;48.428;9.964;2022-12-08T05:13:39;-1.90;99.90
67897;DHT22;54698;48.428;9.964;2022-12-08T05:16:06;-1.90;99.90
67897;DHT22;54698;48.428;9.964;2022-12-08T05:18:35;-1.80;99.90
67897;DHT22;54698;48.428;9.964;2022-12-08T05:21:02;-1.80;99.90
67897;DHT22;54698;48.428;9.964;2022-12-08T05:23:28;-1.80;99.90
67897;DHT22;54698;48.428;9.964;2022-12-08T05:25:55;-1.80;99.90
67897;DHT22;54698;48.428;9.964;2022-12-08T05:28:21;-1.70;99.90
67897;DHT22;54698;48.428;9.964;2022-12-08T05:30:47;-1.70;99.90
67897;DHT22;54698;48.428;9.964;2022-12-08T05:33:13;-1.60;99.90
67897;DHT22;54698;48.428;9.964;2022-12-08T05:35:40;-1.60;99.90
67897;DHT22;54698;48.428;9.964;2022-12-08T05:38:06;-1.60;99.90
67897;DHT22;54698;48.428;9.964;2022-12-08T05:40:32;-1.70;99.90
67897;DHT22;54698;48.428;9.964;2022-12-08T05:42:58;-1.70;99.90
67897;DHT22;54698;48.428;9.964;2022-12-08T05:45:24;-1.80;99.90
67897;DHT22;54698;48.428;9.964;2022-12-08T05:47:51;-1.80;99.90
67897;DHT22;54698;48.428;9.964;2022-12-08T05:50:17;-1.80;99.90
67897;DHT22;54698;48.428;9.964;2022-12-08T05:52:44;-1.80;99.90
67897;DHT22;54698;48.428;9.964;2022-12-08T05:55:10;-1.80;99.90
67897;DHT22;54698;48.428;9.964;2022-12-08T05:57:36;-1.90;99.90
67897;DHT22;54698;48.428;9.964;2022-12-08T06:00:02;-1.80;99.90
67897;DHT22;54698;48.428;9.964;2022-12-08T06:02:29;-1.80;99.90
67897;DHT22;54698;48.428;9.964;2022-12-08T06:04:54;-1.80;99.90
67897;DHT22;54698;48.428;9.964;2022-12-08T06:07:20;-1.80;99.90
67897;DHT22;54698;48.428;9.964;2022-12-08T06:09:47;-1.80;99.90
67897;DHT22;54698;48.428;9.964;2022-12-08T06:12:13;-1.80;99.90
67897;DHT22;54698;48.428;9.964;2022-12-08T06:14:39;-1.80;99.90
67897;DHT22;54698;48.428;9.964;2022-12-08T06:17:05;-1.80;99.90
67897;DHT22;54698;48.428;9.964;2022-12-08T06:19:31;-1.70;99.90
67897;DHT22;54698;48.428;9.964;2022-12-08T06:21:57;-1.60;99.90
67897;DHT22;54698;48.428;9.964;2022-12-08T06:24:23;-1.70;99.90
67897;DHT22;54698;48.428;9.964;2022-12-08T06:26:50;-1.80;99.90
67897;DHT22;54698;48.428;9.964;2022-12-08T06:29:16;-1.80;99.90
67897;DHT22;54698;48.428;9.964;2022-12-08T06:31:41;-1.80;99.90
67897;DHT22;54698;48.428;9.964;2022-12-08T06:34:07;-1.90;99.90
67897;DHT22;54698;48.428;9.964;2022-12-08T06:36:33;-1.90;99.90
67897;DHT22;54698;48.428;9.964;2022-12-08T06:38:59;-1.90;99.90
67897;DHT22;54698;48.428;9.964;2022-12-08T06:41:25;-1.80;99.90
67897;DHT22;54698;48.428;9.964;2022-12-08T06:43:54;-1.90;99.90
67897;DHT22;54698;48.428;9.964;2022-12-08T06:46:20;-2.00;99.90
67897;DHT22;54698;48.428;9.964;2022-12-08T06:48:46;-2.20;99.90
67897;DHT22;54698;48.428;9.964;2022-12-08T06:51:13;-2.30;99.90
67897;DHT22;54698;48.428;9.964;2022-12-08T06:53:41;-2.30;99.90
67897;DHT22;54698;48.428;9.964;2022-12-08T06:56:08;-2.30;99.90
67897;DHT22;54698;48.428;9.964;2022-12-08T06:58:35;-2.30;99.90
67897;DHT22;54698;48.428;9.964;2022-12-08T07:01:07;-2.20;99.90
67897;DHT22;54698;48.428;9.964;2022-12-08T07:03:35;-2.20;99.90
67897;DHT22;54698;48.428;9.964;2022-12-08T07:06:02;-2.20;99.90
67897;DHT22;54698;48.428;9.964;2022-12-08T07:08:28;-2.20;99.90
67897;DHT22;54698;48.428;9.964;2022-12-08T07:10:54;-2.20;99.90
67897;DHT22;54698;48.428;9.964;2022-12-08T07:13:19;-2.10;99.90
67897;DHT22;54698;48.428;9.964;2022-12-08T07:15:45;-2.10;99.90
67897;DHT22;54698;48.428;9.964;2022-12-08T07:18:12;-2.10;99.90
67897;DHT22;54698;48.428;9.964;2022-12-08T07:20:38;-2.10;99.90
67897;DHT22;54698;48.428;9.964;2022-12-08T07:23:04;-2.00;99.90
67897;DHT22;54698;48.428;9.964;2022-12-08T07:25:30;-1.90;99.90
67897;DHT22;54698;48.428;9.964;2022-12-08T07:27:56;-2.00;99.90
67897;DHT22;54698;48.428;9.964;2022-12-08T07:30:21;-2.00;99.90
67897;DHT22;54698;48.428;9.964;2022-12-08T07:32:47;-1.90;99.90
67897;DHT22;54698;48.428;9.964;2022-12-08T07:35:14;-1.90;99.90
67897;DHT22;54698;48.428;9.964;2022-12-08T07:37:40;-2.00;99.90
67897;DHT22;54698;48.428;9.964;2022-12-08T07:40:07;-2.00;99.90
67897;DHT22;54698;48.428;9.964;2022-12-08T07:42:34;-2.00;99.90
67897;DHT22;54698;48.428;9.964;2022-12-08T07:45:00;-1.90;99.90
67897;DHT22;54698;48.428;9.964;2022-12-08T07:47:26;-1.90;99.90
67897;DHT22;54698;48.428;9.964;2022-12-08T07:49:52;-1.80;99.90
67897;DHT22;54698;48.428;9.964;2022-12-08T07:52:19;-1.70;99.90
67897;DHT22;54698;48.428;9.964;2022-12-08T07:54:44;-1.70;99.90
67897;DHT22;54698;48.428;9.964;2022-12-08T07:57:11;-1.80;99.90
67897;DHT22;54698;48.428;9.964;2022-12-08T07:59:37;-1.80;99.90
67897;DHT22;54698;48.428;9.964;2022-12-08T08:02:03;-1.80;99.90
67897;DHT22;54698;48.428;9.964;2022-12-08T08:04:28;-1.70;99.90
67897;DHT22;54698;48.428;9.964;2022-12-08T08:06:54;-1.70;99.90
67897;DHT22;54698;48.428;9.964;2022-12-08T08:09:21;-1.80;99.90
67897;DHT22;54698;48.428;9.964;2022-12-08T08:11:47;-1.80;99.90
67897;DHT22;54698;48.428;9.964;2022-12-08T08:14:13;-1.70;99.90
67897;DHT22;54698;48.428;9.964;2022-12-08T08:16:39;-1.70;99.90
67897;DHT22;54698;48.428;9.964;2022-12-08T08:19:04;-1.70;99.90
67897;DHT22;54698;48.428;9.964;2022-12-08T08:21:30;-1.70;99.90
67897;DHT22;54698;48.428;9.964;2022-12-08T08:23:56;-1.60;99.90
67897;DHT22;54698;48.428;9.964;2022-12-08T08:26:23;-1.60;99.90
67897;DHT22;54698;48.428;9.964;2022-12-08T08:28:49;-1.40;99.90
67897;DHT22;54698;48.428;9.964;2022-12-08T08:31:15;-1.30;99.90
67897;DHT22;54698;48.428;9.964;2022-12-08T08:33:40;-1.20;99.90
67897;DHT22;54698;48.428;9.964;2022-12-08T08:36:07;-1.20;99.90
67897;DHT22;54698;48.428;9.964;2022-12-08T08:38:34;-1.10;99.90
67897;DHT22;54698;48.428;9.964;2022-12-08T08:41:06;-0.90;99.90
67897;DHT22;54698;48.428;9.964;2022-12-08T08:43:34;-0.70;99.90
67897;DHT22;54698;48.428;9.964;2022-12-08T08:46:00;-0.70;99.90
67897;DHT22;54698;48.428;9.964;2022-12-08T08:48:28;-0.60;99.90
67897;DHT22;54698;48.428;9.964;2022-12-08T08:50:54;-0.50;99.90
67897;DHT22;54698;48.428;9.964;2022-12-08T08:53:21;-0.50;99.90
67897;DHT22;54698;48.428;9.964;2022-12-08T08:55:48;-0.40;99.90
67897;DHT22;54698;48.428;9.964;2022-12-08T08:58:14;-0.40;99.90
67897;DHT22;54698;48.428;9.964;2022-12-08T09:00:42;-0.30;99.90
67897;DHT22;54698;48.428;9.964;2022-12-08T09:03:08;-0.20;99.90
67897;DHT22;54698;48.428;9.964;2022-12-08T09:05:36;-0.10;99.90
67897;DHT22;54698;48.428;9.964;2022-12-08T09:08:02;-0.20;99.90
67897;DHT22;54698;48.428;9.964;2022-12-08T09:10:28;-0.40;99.90
67897;DHT22;54698;48.428;9.964;2022-12-08T09:12:54;-0.50;99.90
67897;DHT22;54698;48.428;9.964;2022-12-08T09:15:20;-0.60;99.90
67897;DHT22;54698;48.428;9.964;2022-12-08T09:17:47;-0.70;99.90
67897;DHT22;54698;48.428;9.964;2022-12-08T09:20:13;-0.50;99.90
67897;DHT22;54698;48.428;9.964;2022-12-08T09:22:39;-0.40;99.90
67897;DHT22;54698;48.428;9.964;2022-12-08T09:25:05;-0.30;99.90
67897;DHT22;54698;48.428;9.964;2022-12-08T09:27:31;-0.30;99.90
67897;DHT22;54698;48.428;9.964;2022-12-08T09:29:57;-0.20;99.90
67897;DHT22;54698;48.428;9.964;2022-12-08T09:32:22;-0.10;99.90
67897;DHT22;54698;48.428;9.964;2022-12-08T09:34:50;-0.10;99.90
67897;DHT22;54698;48.428;9.964;2022-12-08T09:37:15;-0.10;99.90
67897;DHT22;54698;48.428;9.964;2022-12-08T09:39:41;0.00;99.90
67897;DHT22;54698;48.428;9.964;2022-12-08T09:42:09;0.10;99.90
67897;DHT22;54698;48.428;9.964;2022-12-08T09:44:46;0.20;99.90
67897;DHT22;54698;48.428;9.964;2022-12-08T09:47:20;0.30;99.90
67897;DHT22;54698;48.428;9.964;2022-12-08T09:49:53;0.40;99.90
67897;DHT22;54698;48.428;9.964;2022-12-08T09:52:24;0.40;99.90
67897;DHT22;54698;48.428;9.964;2022-12-08T09:54:55;0.70;99.90
67897;DHT22;54698;48.428;9.964;2022-12-08T09:57:23;0.80;99.90
67897;DHT22;54698;48.428;9.964;2022-12-08T09:59:53;0.90;99.90
67897;DHT22;54698;48.428;9.964;2022-12-08T10:02:23;1.00;99.90
67897;DHT22;54698;48.428;9.964;2022-12-08T10:04:51;1.20;99.90
67897;DHT22;54698;48.428;9.964;2022-12-08T10:07:26;1.10;99.90
67897;DHT22;54698;48.428;9.964;2022-12-08T10:10:02;1.30;99.90
67897;DHT22;54698;48.428;9.964;2022-12-08T10:12:38;1.40;99.90
67897;DHT22;54698;48.428;9.964;2022-12-08T10:18:18;1.50;99.90
67897;DHT22;54698;48.428;9.964;2022-12-08T10:20:48;1.60;99.90
67897;DHT22;54698;48.428;9.964;2022-12-08T10:23:23;1.60;99.90
67897;DHT22;54698;48.428;9.964;2022-12-08T10:25:56;1.60;99.90
67897;DHT22;54698;48.428;9.964;2022-12-08T10:28:25;1.70;99.90
67897;DHT22;54698;48.428;9.964;2022-12-08T10:30:51;1.80;99.90
67897;DHT22;54698;48.428;9.964;2022-12-08T10:33:19;1.80;99.90
67897;DHT22;54698;48.428;9.964;2022-12-08T10:35:48;1.70;99.90
67897;DHT22;54698;48.428;9.964;2022-12-08T10:38:18;1.70;99.90
67897;DHT22;54698;48.428;9.964;2022-12-08T10:40:47;1.70;99.90
67897;DHT22;54698;48.428;9.964;2022-12-08T10:43:17;1.70;99.90
67897;DHT22;54698;48.428;9.964;2022-12-08T10:45:46;1.70;99.90
67897;DHT22;54698;48.428;9.964;2022-12-08T10:48:16;1.60;99.90
67897;DHT22;54698;48.428;9.964;2022-12-08T10:50:44;1.60;99.90
67897;DHT22;54698;48.428;9.964;2022-12-08T10:53:14;1.70;99.90
67897;DHT22;54698;48.428;9.964;2022-12-08T10:55:46;1.70;99.90
67897;DHT22;54698;48.428;9.964;2022-12-08T10:58:24;1.80;99.90
67897;DHT22;54698;48.428;9.964;2022-12-08T11:00:53;1.90;99.90
67897;DHT22;54698;48.428;9.964;2022-12-08T11:03:24;2.00;99.90
67897;DHT22;54698;48.428;9.964;2022-12-08T11:05:57;2.00;99.90
67897;DHT22;54698;48.428;9.964;2022-12-08T11:08:24;1.90;99.90
67897;DHT22;54698;48.428;9.964;2022-12-08T11:10:51;1.90;99.90
67897;DHT22;54698;48.428;9.964;2022-12-08T11:13:20;1.80;99.90
67897;DHT22;54698;48.428;9.964;2022-12-08T11:15:48;1.80;99.90
67897;DHT22;54698;48.428;9.964;2022-12-08T11:18:24;1.90;99.90
67897;DHT22;54698;48.428;9.964;2022-12-08T11:21:00;1.80;99.90
67897;DHT22;54698;48.428;9.964;2022-12-08T11:23:28;1.80;99.90
67897;DHT22;54698;48.428;9.964;2022-12-08T11:25:59;1.80;99.90
67897;DHT22;54698;48.428;9.964;2022-12-08T11:28:27;1.80;99.90
67897;DHT22;54698;48.428;9.964;2022-12-08T11:30:57;1.90;99.90
67897;DHT22;54698;48.428;9.964;2022-12-08T11:33:26;1.90;99.90
67897;DHT22;54698;48.428;9.964;2022-12-08T11:35:58;2.00;99.90
67897;DHT22;54698;48.428;9.964;2022-12-08T11:38:27;2.20;99.90
67897;DHT22;54698;48.428;9.964;2022-12-08T11:40:56;2.30;99.90
67897;DHT22;54698;48.428;9.964;2022-12-08T11:43:29;2.20;99.90
67897;DHT22;54698;48.428;9.964;2022-12-08T11:46:01;2.40;99.90
67897;DHT22;54698;48.428;9.964;2022-12-08T11:48:32;2.60;99.90
67897;DHT22;54698;48.428;9.964;2022-12-08T11:51:04;2.70;99.90
67897;DHT22;54698;48.428;9.964;2022-12-08T11:53:37;2.90;99.90
67897;DHT22;54698;48.428;9.964;2022-12-08T11:56:12;3.00;99.90
67897;DHT22;54698;48.428;9.964;2022-12-08T11:58:44;3.00;99.90
67897;DHT22;54698;48.428;9.964;2022-12-08T12:01:17;3.00;99.90
67897;DHT22;54698;48.428;9.964;2022-12-08T12:03:47;2.90;99.90
67897;DHT22;54698;48.428;9.964;2022-12-08T12:09:55;2.90;99.90
67897;DHT22;54698;48.428;9.964;2022-12-08T12:12:38;2.80;99.90
67897;DHT22;54698;48.428;9.964;2022-12-08T12:18:23;2.90;99.90
67897;DHT22;54698;48.428;9.964;2022-12-08T12:20:52;2.90;99.90
67897;DHT22;54698;48.428;9.964;2022-12-08T12:23:23;3.00;99.90
67897;DHT22;54698;48.428;9.964;2022-12-08T12:25:57;2.90;99.90
67897;DHT22;54698;48.428;9.964;2022-12-08T12:28:26;2.90;99.90
67897;DHT22;54698;48.428;9.964;2022-12-08T12:30:57;2.90;99.90
67897;DHT22;54698;48.428;9.964;2022-12-08T12:33:26;2.90;99.90
67897;DHT22;54698;48.428;9.964;2022-12-08T12:35:55;2.90;99.90
67897;DHT22;54698;48.428;9.964;2022-12-08T12:38:25;3.00;99.90
67897;DHT22;54698;48.428;9.964;2022-12-08T12:41:00;2.90;99.90
67897;DHT22;54698;48.428;9.964;2022-12-08T12:43:31;2.90;99.90
67897;DHT22;54698;48.428;9.964;2022-12-08T12:46:39;2.90;99.90
67897;DHT22;54698;48.428;9.964;2022-12-08T12:52:43;2.80;99.90
67897;DHT22;54698;48.428;9.964;2022-12-08T12:58:22;2.80;99.90
67897;DHT22;54698;48.428;9.964;2022-12-08T13:04:04;3.00;99.90
67897;DHT22;54698;48.428;9.964;2022-12-08T13:06:35;3.10;99.90
67897;DHT22;54698;48.428;9.964;2022-12-08T13:09:04;3.20;99.90
67897;DHT22;54698;48.428;9.964;2022-12-08T13:11:44;3.30;99.90
67897;DHT22;54698;48.428;9.964;2022-12-08T13:14:26;3.30;99.90
67897;DHT22;54698;48.428;9.964;2022-12-08T13:16:55;3.20;99.90
67897;DHT22;54698;48.428;9.964;2022-12-08T13:19:22;3.20;99.90
67897;DHT22;54698;48.428;9.964;2022-12-08T13:21:48;3.20;99.90
67897;DHT22;54698;48.428;9.964;2022-12-08T13:24:26;3.20;99.90
67897;DHT22;54698;48.428;9.964;2022-12-08T13:27:28;3.20;99.90
67897;DHT22;54698;48.428;9.964;2022-12-08T13:33:16;3.20;99.90
67897;DHT22;54698;48.428;9.964;2022-12-08T13:35:48;3.00;99.90
67897;DHT22;54698;48.428;9.964;2022-12-08T13:38:20;3.00;99.90
67897;DHT22;54698;48.428;9.964;2022-12-08T13:40:47;3.00;99.90
67897;DHT22;54698;48.428;9.964;2022-12-08T13:43:17;2.80;99.90
67897;DHT22;54698;48.428;9.964;2022-12-08T13:45:46;2.70;99.90
67897;DHT22;54698;48.428;9.964;2022-12-08T13:48:17;2.80;99.90
67897;DHT22;54698;48.428;9.964;2022-12-08T13:50:49;2.80;99.90
67897;DHT22;54698;48.428;9.964;2022-12-08T13:53:19;2.80;99.90
67897;DHT22;54698;48.428;9.964;2022-12-08T13:55:48;2.80;99.90
67897;DHT22;54698;48.428;9.964;2022-12-08T13:58:17;2.70;99.90
67897;DHT22;54698;48.428;9.964;2022-12-08T14:00:54;2.70;99.90
67897;DHT22;54698;48.428;9.964;2022-12-08T14:03:24;2.60;99.90
67897;DHT22;54698;48.428;9.964;2022-12-08T14:05:50;2.70;99.90
67897;DHT22;54698;48.428;9.964;2022-12-08T14:08:19;2.70;99.90
67897;DHT22;54698;48.428;9.964;2022-12-08T14:10:52;2.60;99.90
67897;DHT22;54698;48.428;9.964;2022-12-08T14:13:23;2.60;99.90
67897;DHT22;54698;48.428;9.964;2022-12-08T14:15:49;2.50;99.90
67897;DHT22;54698;48.428;9.964;2022-12-08T14:18:25;2.50;99.90
67897;DHT22;54698;48.428;9.964;2022-12-08T14:21:00;2.50;99.90
67897;DHT22;54698;48.428;9.964;2022-12-08T14:23:27;2.50;99.90
67897;DHT22;54698;48.428;9.964;2022-12-08T14:25:54;2.50;99.90
67897;DHT22;54698;48.428;9.964;2022-12-08T14:28:21;2.50;99.90
67897;DHT22;54698;48.428;9.964;2022-12-08T14:30:47;2.50;99.90
67897;DHT22;54698;48.428;9.964;2022-12-08T14:33:14;2.40;99.90
67897;DHT22;54698;48.428;9.964;2022-12-08T14:35:42;2.30;99.90
67897;DHT22;54698;48.428;9.964;2022-12-08T14:38:16;2.30;99.90
67897;DHT22;54698;48.428;9.964;2022-12-08T14:40:43;2.30;99.90
67897;DHT22;54698;48.428;9.964;2022-12-08T14:43:14;2.30;99.90
67897;DHT22;54698;48.428;9.964;2022-12-08T14:45:49;2.20;99.90
67897;DHT22;54698;48.428;9.964;2022-12-08T14:48:23;2.10;99.90
67897;DHT22;54698;48.428;9.964;2022-12-08T14:51:03;2.10;99.90
67897;DHT22;54698;48.428;9.964;2022-12-08T14:53:36;2.10;99.90
67897;DHT22;54698;48.428;9.964;2022-12-08T14:56:06;2.00;99.90
67897;DHT22;54698;48.428;9.964;2022-12-08T14:58:33;2.00;99.90
67897;DHT22;54698;48.428;9.964;2022-12-08T15:00:59;1.90;99.90
67897;DHT22;54698;48.428;9.964;2022-12-08T15:03:26;2.00;99.90
67897;DHT22;54698;48.428;9.964;2022-12-08T15:05:56;2.00;99.90
67897;DHT22;54698;48.428;9.964;2022-12-08T15:08:24;2.00;99.90
67897;DHT22;54698;48.428;9.964;2022-12-08T15:11:11;1.90;99.90
67897;DHT22;54698;48.428;9.964;2022-12-08T15:13:44;1.80;99.90
67897;DHT22;54698;48.428;9.964;2022-12-08T15:16:23;1.70;99.90
67897;DHT22;54698;48.428;9.964;2022-12-08T15:19:01;1.70;99.90
67897;DHT22;54698;48.428;9.964;2022-12-08T15:21:30;1.60;99.90
67897;DHT22;54698;48.428;9.964;2022-12-08T15:24:02;1.50;99.90
67897;DHT22;54698;48.428;9.964;2022-12-08T15:26:33;1.30;99.90
67897;DHT22;54698;48.428;9.964;2022-12-08T15:29:10;1.40;99.90
67897;DHT22;54698;48.428;9.964;2022-12-08T15:31:37;1.40;99.90
67897;DHT22;54698;48.428;9.964;2022-12-08T15:34:02;1.50;99.90
67897;DHT22;54698;48.428;9.964;2022-12-08T15:36:28;1.50;99.90
67897;DHT22;54698;48.428;9.964;2022-12-08T15:38:54;1.30;99.90
67897;DHT22;54698;48.428;9.964;2022-12-08T15:41:21;1.20;99.90
67897;DHT22;54698;48.428;9.964;2022-12-08T15:43:47;1.10;99.90
67897;DHT22;54698;48.428;9.964;2022-12-08T15:46:13;1.00;99.90
67897;DHT22;54698;48.428;9.964;2022-12-08T15:48:39;0.90;99.90
67897;DHT22;54698;48.428;9.964;2022-12-08T15:51:04;0.80;99.90
67897;DHT22;54698;48.428;9.964;2022-12-08T15:53:30;0.80;99.90
67897;DHT22;54698;48.428;9.964;2022-12-08T15:55:56;0.70;99.90
67897;DHT22;54698;48.428;9.964;2022-12-08T15:58:24;0.80;99.90
67897;DHT22;54698;48.428;9.964;2022-12-08T16:00:51;0.80;99.90
67897;DHT22;54698;48.428;9.964;2022-12-08T16:03:19;0.80;99.90
67897;DHT22;54698;48.428;9.964;2022-12-08T16:05:47;0.70;99.90
67897;DHT22;54698;48.428;9.964;2022-12-08T16:08:13;0.70;99.90
67897;DHT22;54698;48.428;9.964;2022-12-08T16:10:39;0.80;99.90
67897;DHT22;54698;48.428;9.964;2022-12-08T16:13:07;0.90;99.90
67897;DHT22;54698;48.428;9.964;2022-12-08T16:15:39;0.90;99.90
67897;DHT22;54698;48.428;9.964;2022-12-08T16:18:13;1.00;99.90